Etusivu
METAR-TAF:

METAR-TAF

Lentoasemat :

Kittilän lentoasema

Kittilä, Suomi

Leveyspiiri: 67-42N, Pituuspiiri: 024-51E, korkeus merenpinnasta: 196 m

Tämänhetkinen sää

Tämä raportti tehtiin 26 minuuttia sitten, kello 15.20 UTC
Tuuli 12 kn lounaasta, vaihdellen etelän/lounaan ja lännen välillä
Lämpötila 24°C
Kosteus 47%
Ilmanpaine 1007 hPa
Näkyvyys 10 km tai enemmän
ei pilviä alle 1500 m:ssä eikä cumulonimbus-pilviä

METAR: EFKT 231520Z AUTO 22012KT 200V270 CAVOK 24/12 Q1007

Aika: 18:46 (15:46 UTC)

Sääennuste

Tämä raportti tehtiin 1 tunti ja 10 minuuttia sitten, kello 14.36 UTC
Ennuste voimassa 23. päivästä klo 15 UTC - 23. päivään klo 17 UTC
Tuuli 13 kn lännestä/lounaasta
Näkyvyys 10 km tai enemmän
Muutamia pilviä 4000 ft:n korkeudessa
Ajoittain
23. päivästä klo 15 UTC - 23. päivään klo 17 UTC
Hajanaisia pilviä 4000 ft:n korkeudessa, Cumulonimbus.

TAF: EFKT 231436Z 2315/2317 24013KT 9999 FEW040 TEMPO 2315/2317 SCT040CB

Säähavainnot ja -ennusteet yli 4000 lentoasemalta (METAR- ja TAF-raportit).

Käytössä olevat sääasemat on merkitty karttaan keltaisilla ja punaisilla pisteillä.

Aseta hiiri pisteen päälle nähdäksesi sääaseman nimen.

Klikkaa sitten nähdäksesi säähavainnot ja -ennusteet.

Kartan vaihtaminen: klikkaa mustalla rastilla varustettuja vihreitä pisteitä, niin voit zoomata sisään; viivalla varustettua vihreää pistettä, niin voit zoomata ulos tai vihreitä nuolia, niin pääset viereisille kartoille.


METAR-TAF: